sensor_id;sensor_type;location;lat;lon;timestamp;temperature;humidity
7202;DHT22;3642;52.506;13.304;2022-07-22T00:00:28;24.60;99.90
7202;DHT22;3642;52.506;13.304;2022-07-22T00:02:56;24.60;99.90
7202;DHT22;3642;52.506;13.304;2022-07-22T00:05:24;24.60;99.90
7202;DHT22;3642;52.506;13.304;2022-07-22T00:07:52;24.50;99.90
7202;DHT22;3642;52.506;13.304;2022-07-22T00:10:22;24.50;99.90
7202;DHT22;3642;52.506;13.304;2022-07-22T00:12:50;24.60;99.90
7202;DHT22;3642;52.506;13.304;2022-07-22T00:15:18;24.60;99.90
7202;DHT22;3642;52.506;13.304;2022-07-22T00:17:46;24.60;99.90
7202;DHT22;3642;52.506;13.304;2022-07-22T00:20:14;24.60;99.90
7202;DHT22;3642;52.506;13.304;2022-07-22T00:22:42;24.60;99.90
7202;DHT22;3642;52.506;13.304;2022-07-22T00:25:10;24.60;99.90
7202;DHT22;3642;52.506;13.304;2022-07-22T00:27:39;24.60;99.90
7202;DHT22;3642;52.506;13.304;2022-07-22T00:30:08;24.70;99.90
7202;DHT22;3642;52.506;13.304;2022-07-22T00:32:38;24.60;99.90
7202;DHT22;3642;52.506;13.304;2022-07-22T00:35:07;24.60;99.90
7202;DHT22;3642;52.506;13.304;2022-07-22T00:37:36;24.70;99.90
7202;DHT22;3642;52.506;13.304;2022-07-22T00:40:05;24.70;99.90
7202;DHT22;3642;52.506;13.304;2022-07-22T00:42:33;24.60;99.90
7202;DHT22;3642;52.506;13.304;2022-07-22T00:45:04;24.70;99.90
7202;DHT22;3642;52.506;13.304;2022-07-22T00:47:34;24.60;99.90
7202;DHT22;3642;52.506;13.304;2022-07-22T00:50:04;24.60;99.90
7202;DHT22;3642;52.506;13.304;2022-07-22T00:52:33;24.60;99.90
7202;DHT22;3642;52.506;13.304;2022-07-22T00:55:03;24.60;99.90
7202;DHT22;3642;52.506;13.304;2022-07-22T00:57:31;24.60;99.90
7202;DHT22;3642;52.506;13.304;2022-07-22T01:00:00;24.60;99.90
7202;DHT22;3642;52.506;13.304;2022-07-22T01:02:30;24.60;99.90
7202;DHT22;3642;52.506;13.304;2022-07-22T01:04:58;24.60;99.90
7202;DHT22;3642;52.506;13.304;2022-07-22T01:07:26;24.50;99.90
7202;DHT22;3642;52.506;13.304;2022-07-22T01:09:54;24.50;99.90
7202;DHT22;3642;52.506;13.304;2022-07-22T01:12:22;24.50;99.90
7202;DHT22;3642;52.506;13.304;2022-07-22T01:14:50;24.40;99.90
7202;DHT22;3642;52.506;13.304;2022-07-22T01:17:18;24.40;99.90
7202;DHT22;3642;52.506;13.304;2022-07-22T01:19:48;24.40;99.90
7202;DHT22;3642;52.506;13.304;2022-07-22T01:22:18;24.40;99.90
7202;DHT22;3642;52.506;13.304;2022-07-22T01:24:47;24.40;99.90
7202;DHT22;3642;52.506;13.304;2022-07-22T01:27:15;24.40;99.90
7202;DHT22;3642;52.506;13.304;2022-07-22T01:29:43;24.40;99.90
7202;DHT22;3642;52.506;13.304;2022-07-22T01:32:11;24.40;99.90
7202;DHT22;3642;52.506;13.304;2022-07-22T01:34:39;24.40;99.90
7202;DHT22;3642;52.506;13.304;2022-07-22T01:37:10;24.30;99.90
7202;DHT22;3642;52.506;13.304;2022-07-22T01:39:40;24.30;99.90
7202;DHT22;3642;52.506;13.304;2022-07-22T01:42:08;24.30;99.90
7202;DHT22;3642;52.506;13.304;2022-07-22T01:44:36;24.30;99.90
7202;DHT22;3642;52.506;13.304;2022-07-22T01:47:04;24.30;99.90
7202;DHT22;3642;52.506;13.304;2022-07-22T01:49:33;24.30;99.90
7202;DHT22;3642;52.506;13.304;2022-07-22T01:52:02;24.30;99.90
7202;DHT22;3642;52.506;13.304;2022-07-22T01:54:32;24.30;99.90
7202;DHT22;3642;52.506;13.304;2022-07-22T01:57:02;24.30;99.90
7202;DHT22;3642;52.506;13.304;2022-07-22T01:59:31;24.20;99.90
7202;DHT22;3642;52.506;13.304;2022-07-22T02:01:59;24.10;99.90
7202;DHT22;3642;52.506;13.304;2022-07-22T02:04:27;24.20;99.90
7202;DHT22;3642;52.506;13.304;2022-07-22T02:06:55;24.20;99.90
7202;DHT22;3642;52.506;13.304;2022-07-22T02:09:23;24.10;99.90
7202;DHT22;3642;52.506;13.304;2022-07-22T02:11:51;24.10;99.90
7202;DHT22;3642;52.506;13.304;2022-07-22T02:14:21;24.10;99.90
7202;DHT22;3642;52.506;13.304;2022-07-22T02:16:49;24.10;99.90
7202;DHT22;3642;52.506;13.304;2022-07-22T02:19:17;24.00;99.90
7202;DHT22;3642;52.506;13.304;2022-07-22T02:21:45;24.00;99.90
7202;DHT22;3642;52.506;13.304;2022-07-22T02:24:13;24.00;99.90
7202;DHT22;3642;52.506;13.304;2022-07-22T02:26:41;24.00;99.90
7202;DHT22;3642;52.506;13.304;2022-07-22T02:29:09;24.00;99.90
7202;DHT22;3642;52.506;13.304;2022-07-22T02:31:39;24.00;99.90
7202;DHT22;3642;52.506;13.304;2022-07-22T02:34:07;24.00;99.90
7202;DHT22;3642;52.506;13.304;2022-07-22T02:36:36;24.00;99.90
7202;DHT22;3642;52.506;13.304;2022-07-22T02:39:04;23.90;99.90
7202;DHT22;3642;52.506;13.304;2022-07-22T02:41:33;23.90;99.90
7202;DHT22;3642;52.506;13.304;2022-07-22T02:44:01;23.90;99.90
7202;DHT22;3642;52.506;13.304;2022-07-22T02:46:29;23.90;99.90
7202;DHT22;3642;52.506;13.304;2022-07-22T02:48:58;23.90;99.90
7202;DHT22;3642;52.506;13.304;2022-07-22T02:51:27;23.90;99.90
7202;DHT22;3642;52.506;13.304;2022-07-22T02:53:55;23.90;99.90
7202;DHT22;3642;52.506;13.304;2022-07-22T02:56:23;23.90;99.90
7202;DHT22;3642;52.506;13.304;2022-07-22T02:58:51;23.90;99.90
7202;DHT22;3642;52.506;13.304;2022-07-22T03:01:20;23.80;99.90
7202;DHT22;3642;52.506;13.304;2022-07-22T03:03:48;23.70;99.90
7202;DHT22;3642;52.506;13.304;2022-07-22T03:06:19;23.70;99.90
7202;DHT22;3642;52.506;13.304;2022-07-22T03:08:48;23.70;99.90
7202;DHT22;3642;52.506;13.304;2022-07-22T03:11:16;23.60;99.90
7202;DHT22;3642;52.506;13.304;2022-07-22T03:13:44;23.70;99.90
7202;DHT22;3642;52.506;13.304;2022-07-22T03:16:12;23.60;99.90
7202;DHT22;3642;52.506;13.304;2022-07-22T03:18:40;23.60;99.90
7202;DHT22;3642;52.506;13.304;2022-07-22T03:21:08;23.50;99.90
7202;DHT22;3642;52.506;13.304;2022-07-22T03:23:38;23.50;99.90
7202;DHT22;3642;52.506;13.304;2022-07-22T03:26:06;23.40;99.90
7202;DHT22;3642;52.506;13.304;2022-07-22T03:28:34;23.40;99.90
7202;DHT22;3642;52.506;13.304;2022-07-22T03:31:02;23.40;99.90
7202;DHT22;3642;52.506;13.304;2022-07-22T03:33:30;23.40;99.90
7202;DHT22;3642;52.506;13.304;2022-07-22T03:35:58;23.50;99.90
7202;DHT22;3642;52.506;13.304;2022-07-22T03:38:27;23.50;99.90
7202;DHT22;3642;52.506;13.304;2022-07-22T03:40:56;23.50;99.90
7202;DHT22;3642;52.506;13.304;2022-07-22T03:43:24;23.60;99.90
7202;DHT22;3642;52.506;13.304;2022-07-22T03:45:52;23.60;99.90
7202;DHT22;3642;52.506;13.304;2022-07-22T03:48:20;23.50;99.90
7202;DHT22;3642;52.506;13.304;2022-07-22T03:50:48;23.60;99.90
7202;DHT22;3642;52.506;13.304;2022-07-22T03:53:18;23.60;99.90
7202;DHT22;3642;52.506;13.304;2022-07-22T03:55:47;23.70;99.90
7202;DHT22;3642;52.506;13.304;2022-07-22T03:58:17;23.70;99.90
7202;DHT22;3642;52.506;13.304;2022-07-22T04:00:45;23.70;99.90
7202;DHT22;3642;52.506;13.304;2022-07-22T04:03:13;23.70;99.90
7202;DHT22;3642;52.506;13.304;2022-07-22T04:05:41;23.60;99.90
7202;DHT22;3642;52.506;13.304;2022-07-22T04:08:09;23.60;99.90
7202;DHT22;3642;52.506;13.304;2022-07-22T04:10:37;23.50;99.90
7202;DHT22;3642;52.506;13.304;2022-07-22T04:13:05;23.50;99.90
7202;DHT22;3642;52.506;13.304;2022-07-22T04:15:35;23.50;99.90
7202;DHT22;3642;52.506;13.304;2022-07-22T04:18:03;23.50;99.90
7202;DHT22;3642;52.506;13.304;2022-07-22T04:20:31;23.50;99.90
7202;DHT22;3642;52.506;13.304;2022-07-22T04:22:59;23.50;99.90
7202;DHT22;3642;52.506;13.304;2022-07-22T04:25:28;23.50;99.90
7202;DHT22;3642;52.506;13.304;2022-07-22T04:27:56;23.50;99.90
7202;DHT22;3642;52.506;13.304;2022-07-22T04:30:24;23.60;99.90
7202;DHT22;3642;52.506;13.304;2022-07-22T04:32:53;23.60;99.90
7202;DHT22;3642;52.506;13.304;2022-07-22T04:35:22;23.60;99.90
7202;DHT22;3642;52.506;13.304;2022-07-22T04:37:50;23.60;99.90
7202;DHT22;3642;52.506;13.304;2022-07-22T04:40:19;23.60;99.90
7202;DHT22;3642;52.506;13.304;2022-07-22T04:42:48;23.60;99.90
7202;DHT22;3642;52.506;13.304;2022-07-22T04:45:16;23.60;99.90
7202;DHT22;3642;52.506;13.304;2022-07-22T04:47:44;23.60;99.90
7202;DHT22;3642;52.506;13.304;2022-07-22T04:50:13;23.60;99.90
7202;DHT22;3642;52.506;13.304;2022-07-22T04:52:41;23.60;99.90
7202;DHT22;3642;52.506;13.304;2022-07-22T04:55:15;23.70;99.90
7202;DHT22;3642;52.506;13.304;2022-07-22T04:57:43;23.70;99.90
7202;DHT22;3642;52.506;13.304;2022-07-22T05:00:13;23.70;99.90
7202;DHT22;3642;52.506;13.304;2022-07-22T05:02:42;23.60;99.90
7202;DHT22;3642;52.506;13.304;2022-07-22T05:05:10;23.60;99.90
7202;DHT22;3642;52.506;13.304;2022-07-22T05:07:40;23.60;99.90
7202;DHT22;3642;52.506;13.304;2022-07-22T05:10:08;23.60;99.90
7202;DHT22;3642;52.506;13.304;2022-07-22T05:12:39;23.70;99.90
7202;DHT22;3642;52.506;13.304;2022-07-22T05:15:08;23.60;99.90
7202;DHT22;3642;52.506;13.304;2022-07-22T05:17:36;23.60;99.90
7202;DHT22;3642;52.506;13.304;2022-07-22T05:20:05;23.60;99.90
7202;DHT22;3642;52.506;13.304;2022-07-22T05:22:34;23.60;99.90
7202;DHT22;3642;52.506;13.304;2022-07-22T05:25:06;23.60;99.90
7202;DHT22;3642;52.506;13.304;2022-07-22T05:27:34;23.60;99.90
7202;DHT22;3642;52.506;13.304;2022-07-22T05:30:02;23.70;99.90
7202;DHT22;3642;52.506;13.304;2022-07-22T05:32:31;23.70;99.90
7202;DHT22;3642;52.506;13.304;2022-07-22T05:34:59;23.80;99.90
7202;DHT22;3642;52.506;13.304;2022-07-22T05:37:27;23.80;99.90
7202;DHT22;3642;52.506;13.304;2022-07-22T05:39:55;23.70;99.90
7202;DHT22;3642;52.506;13.304;2022-07-22T05:42:25;23.70;99.90
7202;DHT22;3642;52.506;13.304;2022-07-22T05:44:56;23.70;99.90
7202;DHT22;3642;52.506;13.304;2022-07-22T05:47:24;23.80;99.90
7202;DHT22;3642;52.506;13.304;2022-07-22T05:49:52;23.90;99.90
7202;DHT22;3642;52.506;13.304;2022-07-22T05:52:20;23.90;99.90
7202;DHT22;3642;52.506;13.304;2022-07-22T05:54:48;24.10;99.90
7202;DHT22;3642;52.506;13.304;2022-07-22T05:57:17;24.20;99.90
7202;DHT22;3642;52.506;13.304;2022-07-22T05:59:46;24.30;99.90
7202;DHT22;3642;52.506;13.304;2022-07-22T06:02:14;24.30;99.90
7202;DHT22;3642;52.506;13.304;2022-07-22T06:04:43;24.10;99.90
7202;DHT22;3642;52.506;13.304;2022-07-22T06:07:11;24.00;99.90
7202;DHT22;3642;52.506;13.304;2022-07-22T06:09:40;24.10;99.90
7202;DHT22;3642;52.506;13.304;2022-07-22T06:12:08;23.90;99.90
7202;DHT22;3642;52.506;13.304;2022-07-22T06:14:37;23.90;99.90
7202;DHT22;3642;52.506;13.304;2022-07-22T06:17:07;24.00;99.90
7202;DHT22;3642;52.506;13.304;2022-07-22T06:19:35;24.00;99.90
7202;DHT22;3642;52.506;13.304;2022-07-22T06:22:03;24.00;99.90
7202;DHT22;3642;52.506;13.304;2022-07-22T06:24:31;24.10;99.90
7202;DHT22;3642;52.506;13.304;2022-07-22T06:26:59;23.90;99.90
7202;DHT22;3642;52.506;13.304;2022-07-22T06:29:27;23.90;99.90
7202;DHT22;3642;52.506;13.304;2022-07-22T06:31:55;23.90;99.90
7202;DHT22;3642;52.506;13.304;2022-07-22T06:34:26;24.00;99.90
7202;DHT22;3642;52.506;13.304;2022-07-22T06:36:54;24.00;99.90
7202;DHT22;3642;52.506;13.304;2022-07-22T06:39:22;24.00;99.90
7202;DHT22;3642;52.506;13.304;2022-07-22T06:41:51;23.90;99.90
7202;DHT22;3642;52.506;13.304;2022-07-22T06:44:19;24.10;99.90
7202;DHT22;3642;52.506;13.304;2022-07-22T06:46:47;24.30;99.90
7202;DHT22;3642;52.506;13.304;2022-07-22T06:49:16;24.40;99.90
7202;DHT22;3642;52.506;13.304;2022-07-22T06:51:46;24.50;99.90
7202;DHT22;3642;52.506;13.304;2022-07-22T06:54:14;24.50;99.90
7202;DHT22;3642;52.506;13.304;2022-07-22T06:56:42;24.40;99.90
7202;DHT22;3642;52.506;13.304;2022-07-22T06:59:10;24.40;99.90
7202;DHT22;3642;52.506;13.304;2022-07-22T07:01:40;24.50;99.90
7202;DHT22;3642;52.506;13.304;2022-07-22T07:04:11;24.60;99.90
7202;DHT22;3642;52.506;13.304;2022-07-22T07:06:40;24.50;99.90
7202;DHT22;3642;52.506;13.304;2022-07-22T07:09:09;24.50;99.90
7202;DHT22;3642;52.506;13.304;2022-07-22T07:11:37;24.40;99.90
7202;DHT22;3642;52.506;13.304;2022-07-22T07:14:09;24.40;99.90
7202;DHT22;3642;52.506;13.304;2022-07-22T07:16:37;24.40;99.90
7202;DHT22;3642;52.506;13.304;2022-07-22T07:19:05;24.40;99.90
7202;DHT22;3642;52.506;13.304;2022-07-22T07:21:33;24.50;99.90
7202;DHT22;3642;52.506;13.304;2022-07-22T07:24:01;24.60;99.90
7202;DHT22;3642;52.506;13.304;2022-07-22T07:26:31;24.60;99.90
7202;DHT22;3642;52.506;13.304;2022-07-22T07:28:59;24.50;99.90
7202;DHT22;3642;52.506;13.304;2022-07-22T07:31:28;24.30;99.90
7202;DHT22;3642;52.506;13.304;2022-07-22T07:33:58;24.30;99.90
7202;DHT22;3642;52.506;13.304;2022-07-22T07:36:26;24.20;99.90
7202;DHT22;3642;52.506;13.304;2022-07-22T07:38:54;24.30;99.90
7202;DHT22;3642;52.506;13.304;2022-07-22T07:41:23;24.40;99.90
7202;DHT22;3642;52.506;13.304;2022-07-22T07:43:53;24.50;99.90
7202;DHT22;3642;52.506;13.304;2022-07-22T07:46:21;24.40;99.90
7202;DHT22;3642;52.506;13.304;2022-07-22T07:48:49;24.50;99.90
7202;DHT22;3642;52.506;13.304;2022-07-22T07:51:17;24.60;99.90
7202;DHT22;3642;52.506;13.304;2022-07-22T07:53:45;24.60;99.90
7202;DHT22;3642;52.506;13.304;2022-07-22T07:56:14;24.60;99.90
7202;DHT22;3642;52.506;13.304;2022-07-22T07:58:42;24.70;99.90
7202;DHT22;3642;52.506;13.304;2022-07-22T08:01:31;24.70;99.90
7202;DHT22;3642;52.506;13.304;2022-07-22T08:04:20;24.80;99.90
7202;DHT22;3642;52.506;13.304;2022-07-22T08:07:02;25.00;99.90
7202;DHT22;3642;52.506;13.304;2022-07-22T08:09:31;25.00;99.90
7202;DHT22;3642;52.506;13.304;2022-07-22T08:11:59;25.10;99.90
7202;DHT22;3642;52.506;13.304;2022-07-22T08:14:28;25.10;99.90
7202;DHT22;3642;52.506;13.304;2022-07-22T08:16:59;25.10;99.90
7202;DHT22;3642;52.506;13.304;2022-07-22T08:19:27;25.20;99.90
7202;DHT22;3642;52.506;13.304;2022-07-22T08:21:56;25.30;99.90
7202;DHT22;3642;52.506;13.304;2022-07-22T08:24:24;25.40;99.90
7202;DHT22;3642;52.506;13.304;2022-07-22T08:26:53;25.50;99.90
7202;DHT22;3642;52.506;13.304;2022-07-22T08:29:21;25.50;99.90
7202;DHT22;3642;52.506;13.304;2022-07-22T08:31:50;25.40;99.90
7202;DHT22;3642;52.506;13.304;2022-07-22T08:34:20;25.20;99.90
7202;DHT22;3642;52.506;13.304;2022-07-22T08:36:48;25.10;99.90
7202;DHT22;3642;52.506;13.304;2022-07-22T08:39:16;25.00;99.90
7202;DHT22;3642;52.506;13.304;2022-07-22T08:41:49;25.00;99.90
7202;DHT22;3642;52.506;13.304;2022-07-22T08:44:18;24.90;99.90
7202;DHT22;3642;52.506;13.304;2022-07-22T08:46:46;24.80;99.90
7202;DHT22;3642;52.506;13.304;2022-07-22T08:49:15;24.80;99.90
7202;DHT22;3642;52.506;13.304;2022-07-22T08:51:46;24.80;99.90
7202;DHT22;3642;52.506;13.304;2022-07-22T08:54:14;24.90;99.90
7202;DHT22;3642;52.506;13.304;2022-07-22T08:56:46;25.10;99.90
7202;DHT22;3642;52.506;13.304;2022-07-22T08:59:14;25.20;99.90
7202;DHT22;3642;52.506;13.304;2022-07-22T09:02:04;25.30;99.90
7202;DHT22;3642;52.506;13.304;2022-07-22T09:04:50;25.30;99.90
7202;DHT22;3642;52.506;13.304;2022-07-22T09:07:25;25.30;99.90
7202;DHT22;3642;52.506;13.304;2022-07-22T09:09:54;25.20;99.90
7202;DHT22;3642;52.506;13.304;2022-07-22T09:12:22;25.00;99.90
7202;DHT22;3642;52.506;13.304;2022-07-22T09:14:53;25.00;99.90
7202;DHT22;3642;52.506;13.304;2022-07-22T09:17:27;24.90;99.90
7202;DHT22;3642;52.506;13.304;2022-07-22T09:19:56;24.80;99.90
7202;DHT22;3642;52.506;13.304;2022-07-22T09:22:34;24.80;99.90
7202;DHT22;3642;52.506;13.304;2022-07-22T09:25:18;24.70;99.90
7202;DHT22;3642;52.506;13.304;2022-07-22T09:27:47;24.70;99.90
7202;DHT22;3642;52.506;13.304;2022-07-22T09:30:17;24.80;99.90
7202;DHT22;3642;52.506;13.304;2022-07-22T09:32:48;25.00;99.90
7202;DHT22;3642;52.506;13.304;2022-07-22T09:35:18;25.00;99.90
7202;DHT22;3642;52.506;13.304;2022-07-22T09:37:50;24.90;99.90
7202;DHT22;3642;52.506;13.304;2022-07-22T09:40:21;24.90;99.90
7202;DHT22;3642;52.506;13.304;2022-07-22T09:42:52;25.00;99.90
7202;DHT22;3642;52.506;13.304;2022-07-22T09:45:23;25.20;99.90
7202;DHT22;3642;52.506;13.304;2022-07-22T09:47:53;25.30;99.90
7202;DHT22;3642;52.506;13.304;2022-07-22T09:50:23;25.50;99.90
7202;DHT22;3642;52.506;13.304;2022-07-22T09:52:55;25.50;99.90
7202;DHT22;3642;52.506;13.304;2022-07-22T09:55:30;25.60;99.90
7202;DHT22;3642;52.506;13.304;2022-07-22T09:58:00;25.70;99.90
7202;DHT22;3642;52.506;13.304;2022-07-22T10:00:28;25.70;99.90
7202;DHT22;3642;52.506;13.304;2022-07-22T10:02:59;25.80;99.90
7202;DHT22;3642;52.506;13.304;2022-07-22T10:05:30;25.80;99.90
7202;DHT22;3642;52.506;13.304;2022-07-22T10:08:01;25.70;99.90
7202;DHT22;3642;52.506;13.304;2022-07-22T10:10:31;25.80;99.90
7202;DHT22;3642;52.506;13.304;2022-07-22T10:13:00;25.90;99.90
7202;DHT22;3642;52.506;13.304;2022-07-22T10:15:30;25.90;99.90
7202;DHT22;3642;52.506;13.304;2022-07-22T10:18:03;25.70;99.90
7202;DHT22;3642;52.506;13.304;2022-07-22T10:20:34;25.50;99.90
7202;DHT22;3642;52.506;13.304;2022-07-22T10:23:05;25.60;99.90
7202;DHT22;3642;52.506;13.304;2022-07-22T10:25:51;25.70;99.90
7202;DHT22;3642;52.506;13.304;2022-07-22T10:28:25;25.80;99.90
7202;DHT22;3642;52.506;13.304;2022-07-22T10:30:54;25.80;99.90
7202;DHT22;3642;52.506;13.304;2022-07-22T10:33:35;25.60;99.90
7202;DHT22;3642;52.506;13.304;2022-07-22T10:36:04;25.80;99.90
7202;DHT22;3642;52.506;13.304;2022-07-22T10:38:34;25.90;99.90
7202;DHT22;3642;52.506;13.304;2022-07-22T10:41:03;26.00;99.90
7202;DHT22;3642;52.506;13.304;2022-07-22T10:43:46;26.20;99.90
7202;DHT22;3642;52.506;13.304;2022-07-22T10:46:14;26.30;99.90
7202;DHT22;3642;52.506;13.304;2022-07-22T10:48:46;26.20;99.90
7202;DHT22;3642;52.506;13.304;2022-07-22T10:51:16;26.00;99.90
7202;DHT22;3642;52.506;13.304;2022-07-22T10:53:52;25.60;99.90
7202;DHT22;3642;52.506;13.304;2022-07-22T10:56:23;25.50;99.90
7202;DHT22;3642;52.506;13.304;2022-07-22T10:58:58;25.60;99.90
7202;DHT22;3642;52.506;13.304;2022-07-22T11:01:30;25.70;99.90
7202;DHT22;3642;52.506;13.304;2022-07-22T11:04:10;25.60;99.90
7202;DHT22;3642;52.506;13.304;2022-07-22T11:06:45;25.50;99.90
7202;DHT22;3642;52.506;13.304;2022-07-22T11:09:16;25.50;99.90
7202;DHT22;3642;52.506;13.304;2022-07-22T11:11:47;25.50;99.90
7202;DHT22;3642;52.506;13.304;2022-07-22T11:14:22;25.50;99.90
7202;DHT22;3642;52.506;13.304;2022-07-22T11:16:54;25.50;99.90
7202;DHT22;3642;52.506;13.304;2022-07-22T11:19:24;25.50;99.90
7202;DHT22;3642;52.506;13.304;2022-07-22T11:21:54;25.50;99.90
7202;DHT22;3642;52.506;13.304;2022-07-22T11:24:25;25.60;99.90
7202;DHT22;3642;52.506;13.304;2022-07-22T11:26:55;25.70;99.90
7202;DHT22;3642;52.506;13.304;2022-07-22T11:29:32;25.70;99.90
7202;DHT22;3642;52.506;13.304;2022-07-22T11:32:03;25.80;99.90
7202;DHT22;3642;52.506;13.304;2022-07-22T11:34:34;25.90;99.90
7202;DHT22;3642;52.506;13.304;2022-07-22T11:37:03;26.00;99.90
7202;DHT22;3642;52.506;13.304;2022-07-22T11:39:33;26.10;99.90
7202;DHT22;3642;52.506;13.304;2022-07-22T11:42:02;26.10;99.90
7202;DHT22;3642;52.506;13.304;2022-07-22T11:44:32;26.10;99.90
7202;DHT22;3642;52.506;13.304;2022-07-22T11:47:01;26.20;99.90
7202;DHT22;3642;52.506;13.304;2022-07-22T11:49:30;26.30;99.90
7202;DHT22;3642;52.506;13.304;2022-07-22T11:52:00;26.20;99.90
7202;DHT22;3642;52.506;13.304;2022-07-22T11:54:29;26.30;99.90
7202;DHT22;3642;52.506;13.304;2022-07-22T11:56:58;26.30;99.90
7202;DHT22;3642;52.506;13.304;2022-07-22T11:59:26;26.40;99.90
7202;DHT22;3642;52.506;13.304;2022-07-22T12:01:55;26.40;99.90
7202;DHT22;3642;52.506;13.304;2022-07-22T12:04:24;26.30;99.90
7202;DHT22;3642;52.506;13.304;2022-07-22T12:06:54;26.30;99.90
7202;DHT22;3642;52.506;13.304;2022-07-22T12:09:23;26.20;99.90
7202;DHT22;3642;52.506;13.304;2022-07-22T12:11:54;26.30;99.90
7202;DHT22;3642;52.506;13.304;2022-07-22T12:14:25;26.30;99.90
7202;DHT22;3642;52.506;13.304;2022-07-22T12:16:56;26.10;99.90
7202;DHT22;3642;52.506;13.304;2022-07-22T12:19:25;26.30;99.90
7202;DHT22;3642;52.506;13.304;2022-07-22T12:21:59;26.50;99.90
7202;DHT22;3642;52.506;13.304;2022-07-22T12:24:30;26.70;99.90
7202;DHT22;3642;52.506;13.304;2022-07-22T12:27:00;26.80;99.90
7202;DHT22;3642;52.506;13.304;2022-07-22T12:29:40;26.80;99.90
7202;DHT22;3642;52.506;13.304;2022-07-22T12:32:13;26.90;99.90
7202;DHT22;3642;52.506;13.304;2022-07-22T12:34:44;26.90;99.90
7202;DHT22;3642;52.506;13.304;2022-07-22T12:37:15;26.90;99.90
7202;DHT22;3642;52.506;13.304;2022-07-22T12:39:54;26.90;99.90
7202;DHT22;3642;52.506;13.304;2022-07-22T12:42:23;26.80;99.90
7202;DHT22;3642;52.506;13.304;2022-07-22T12:45:03;26.70;99.90
7202;DHT22;3642;52.506;13.304;2022-07-22T12:47:39;26.50;99.90
7202;DHT22;3642;52.506;13.304;2022-07-22T12:50:18;26.40;99.90
7202;DHT22;3642;52.506;13.304;2022-07-22T12:52:48;26.20;99.90
7202;DHT22;3642;52.506;13.304;2022-07-22T12:55:38;26.20;99.90
7202;DHT22;3642;52.506;13.304;2022-07-22T12:58:08;26.00;99.90
7202;DHT22;3642;52.506;13.304;2022-07-22T13:00:40;25.90;99.90
7202;DHT22;3642;52.506;13.304;2022-07-22T13:03:09;26.00;99.90
7202;DHT22;3642;52.506;13.304;2022-07-22T13:05:38;25.90;99.90
7202;DHT22;3642;52.506;13.304;2022-07-22T13:08:08;25.90;99.90
7202;DHT22;3642;52.506;13.304;2022-07-22T13:10:36;25.80;99.90
7202;DHT22;3642;52.506;13.304;2022-07-22T13:13:05;25.80;99.90
7202;DHT22;3642;52.506;13.304;2022-07-22T13:15:34;25.80;99.90
7202;DHT22;3642;52.506;13.304;2022-07-22T13:18:06;25.90;99.90
7202;DHT22;3642;52.506;13.304;2022-07-22T13:20:34;26.00;99.90
7202;DHT22;3642;52.506;13.304;2022-07-22T13:23:03;26.20;99.90
7202;DHT22;3642;52.506;13.304;2022-07-22T13:25:33;26.10;99.90
7202;DHT22;3642;52.506;13.304;2022-07-22T13:28:02;26.10;99.90
7202;DHT22;3642;52.506;13.304;2022-07-22T13:30:31;26.20;99.90
7202;DHT22;3642;52.506;13.304;2022-07-22T13:32:59;26.10;99.90
7202;DHT22;3642;52.506;13.304;2022-07-22T13:35:29;26.00;99.90
7202;DHT22;3642;52.506;13.304;2022-07-22T13:37:57;25.90;99.90
7202;DHT22;3642;52.506;13.304;2022-07-22T13:40:26;25.80;99.90
7202;DHT22;3642;52.506;13.304;2022-07-22T13:42:54;25.80;99.90
7202;DHT22;3642;52.506;13.304;2022-07-22T13:45:23;25.80;99.90
7202;DHT22;3642;52.506;13.304;2022-07-22T13:47:51;25.70;99.90
7202;DHT22;3642;52.506;13.304;2022-07-22T13:50:19;25.70;99.90
7202;DHT22;3642;52.506;13.304;2022-07-22T13:52:49;25.60;99.90
7202;DHT22;3642;52.506;13.304;2022-07-22T13:55:17;25.50;99.90
7202;DHT22;3642;52.506;13.304;2022-07-22T13:57:46;25.60;99.90
7202;DHT22;3642;52.506;13.304;2022-07-22T14:00:15;25.60;99.90
7202;DHT22;3642;52.506;13.304;2022-07-22T14:02:43;25.60;99.90
7202;DHT22;3642;52.506;13.304;2022-07-22T14:05:12;25.70;99.90
7202;DHT22;3642;52.506;13.304;2022-07-22T14:07:42;25.80;99.90
7202;DHT22;3642;52.506;13.304;2022-07-22T14:10:12;25.90;99.90
7202;DHT22;3642;52.506;13.304;2022-07-22T14:12:41;26.00;99.90
7202;DHT22;3642;52.506;13.304;2022-07-22T14:15:10;26.00;99.90
7202;DHT22;3642;52.506;13.304;2022-07-22T14:17:40;25.90;99.90
7202;DHT22;3642;52.506;13.304;2022-07-22T14:20:09;26.00;99.90
7202;DHT22;3642;52.506;13.304;2022-07-22T14:22:38;26.00;99.90
7202;DHT22;3642;52.506;13.304;2022-07-22T14:25:06;26.00;99.90
7202;DHT22;3642;52.506;13.304;2022-07-22T14:27:36;26.10;99.90
7202;DHT22;3642;52.506;13.304;2022-07-22T14:30:06;26.10;99.90
7202;DHT22;3642;52.506;13.304;2022-07-22T14:32:35;26.20;99.90
7202;DHT22;3642;52.506;13.304;2022-07-22T14:35:04;26.20;99.90
7202;DHT22;3642;52.506;13.304;2022-07-22T14:37:33;26.20;99.90
7202;DHT22;3642;52.506;13.304;2022-07-22T14:40:02;26.10;99.90
7202;DHT22;3642;52.506;13.304;2022-07-22T14:42:32;26.00;99.90
7202;DHT22;3642;52.506;13.304;2022-07-22T14:45:06;26.10;99.90
7202;DHT22;3642;52.506;13.304;2022-07-22T14:47:36;26.10;99.90
7202;DHT22;3642;52.506;13.304;2022-07-22T14:50:05;26.30;99.90
7202;DHT22;3642;52.506;13.304;2022-07-22T14:52:34;26.40;99.90
7202;DHT22;3642;52.506;13.304;2022-07-22T14:55:02;26.60;99.70
7202;DHT22;3642;52.506;13.304;2022-07-22T14:57:31;26.50;99.50
7202;DHT22;3642;52.506;13.304;2022-07-22T15:00:00;26.50;98.90
7202;DHT22;3642;52.506;13.304;2022-07-22T15:02:30;26.60;98.90
7202;DHT22;3642;52.506;13.304;2022-07-22T15:04:58;26.70;98.60
7202;DHT22;3642;52.506;13.304;2022-07-22T15:07:26;26.60;98.50
7202;DHT22;3642;52.506;13.304;2022-07-22T15:09:55;26.80;98.20
7202;DHT22;3642;52.506;13.304;2022-07-22T15:12:23;26.80;97.90
7202;DHT22;3642;52.506;13.304;2022-07-22T15:15:11;26.80;97.70
7202;DHT22;3642;52.506;13.304;2022-07-22T15:17:41;26.70;97.70
7202;DHT22;3642;52.506;13.304;2022-07-22T15:20:10;26.80;97.40
7202;DHT22;3642;52.506;13.304;2022-07-22T15:22:38;26.80;96.90
7202;DHT22;3642;52.506;13.304;2022-07-22T15:25:07;26.90;96.60
7202;DHT22;3642;52.506;13.304;2022-07-22T15:27:35;26.90;96.60
7202;DHT22;3642;52.506;13.304;2022-07-22T15:30:06;26.90;96.30
7202;DHT22;3642;52.506;13.304;2022-07-22T15:32:35;26.90;96.10
7202;DHT22;3642;52.506;13.304;2022-07-22T15:35:07;27.00;95.80
7202;DHT22;3642;52.506;13.304;2022-07-22T15:37:36;27.00;95.70
7202;DHT22;3642;52.506;13.304;2022-07-22T15:40:09;27.10;95.10
7202;DHT22;3642;52.506;13.304;2022-07-22T15:42:39;27.30;95.00
7202;DHT22;3642;52.506;13.304;2022-07-22T15:45:10;27.40;94.80
7202;DHT22;3642;52.506;13.304;2022-07-22T15:47:39;27.40;94.40
7202;DHT22;3642;52.506;13.304;2022-07-22T15:50:10;27.30;94.20
7202;DHT22;3642;52.506;13.304;2022-07-22T15:52:39;27.30;94.10
7202;DHT22;3642;52.506;13.304;2022-07-22T15:55:08;27.30;94.20
7202;DHT22;3642;52.506;13.304;2022-07-22T15:57:37;27.30;94.30
7202;DHT22;3642;52.506;13.304;2022-07-22T16:00:24;27.20;94.20